Flight Track Log - Related Links

Times and Time Zones

All times are in EDT time to prevent confusion due to time zone crossing. See the EJA846 flight status page for this flight to view local times or setup timezone preferences in your user account.

Time Position Orientation Groundspeed Altitude Reporting Facility
EDT Latitude Longitude Course Direction KTS MPH feet Rate Location/Type
Wed 04:56:42 PM 27.9667 -82.5333 211° Southwest 182 209 700  Level Tampa TRACON
Wed 04:57:42 PM 27.9167 -82.5667 211° Southwest 251 289 3,500 3,248 Climbing Tampa TRACON
Wed 04:58:31 PM 27.9333 -82.6333 286° West 275 316 6,600 3,411 Climbing Tampa TRACON
Wed 05:00:52 PM 28.1039 -82.6314 North 291 335 14,300 2,806 Climbing Jacksonville Center
Wed 05:01:52 PM 28.1914 -82.6147 10° North 296 341 16,000 850 Climbing Jacksonville Center
Wed 05:02:52 PM 28.2936 -82.5956 North 334 384 16,000  Level Jacksonville Center
Wed 05:03:52 PM 28.3958 -82.5764 North 356 410 16,000  Level Jacksonville Center
Wed 05:04:52 PM 28.4981 -82.5619 North 367 422 16,000  Level Jacksonville Center
Wed 05:05:52 PM 28.6003 -82.5425 North 367 422 16,000  Level Jacksonville Center
Wed 05:06:52 PM 28.6983 -82.5258 North 367 422 16,000  Level Jacksonville Center
Wed 05:07:52 PM 28.8006 -82.5039 11° North 367 422 16,000  Level Jacksonville Center
Wed 05:08:52 PM 28.9006 -82.4750 14° North 372 428 16,000  Level Jacksonville Center
Wed 05:09:52 PM 29.0047 -82.4486 12° North 372 428 16,000  Level Jacksonville Center
Wed 05:10:52 PM 29.1050 -82.4244 12° North 372 428 16,000 69 Level Jacksonville Center
Wed 05:11:19 PM 29.1569 -82.4122 12° North 373 429 16,100  Climbing Jacksonville Center
Wed 05:11:52 PM 29.2050 -82.3978 15° North 372 428 16,000  Descending Jacksonville Center
Wed 05:12:15 PM 29.2531 -82.3881 10° North 373 429 16,100  Climbing Jacksonville Center
Wed 05:12:52 PM 29.3072 -82.3733 13° North 372 428 16,000  Descending Jacksonville Center
Wed 05:13:15 PM 29.3531 -82.3636 10° North 371 427 16,100  Climbing Jacksonville Center
Wed 05:13:52 PM 29.4072 -82.3442 17° North 372 428 16,000 -197 Descending Jacksonville Center
Wed 05:14:16 PM 29.4553 -82.3369 North 369 425 15,900 -600 Descending Jacksonville Center
Wed 05:14:52 PM 29.5053 -82.3197 17° North 367 422 15,400 -1,082 Descending Jacksonville Center
Wed 05:15:17 PM 29.5594 -82.3028 15° North 365 420 14,800 -1,000 Descending Jacksonville Center
Wed 05:15:52 PM 29.6011 -82.2833 22° Northeast 362 417 14,400 -873 Descending Jacksonville Center
Wed 05:16:12 PM 29.6408 -82.2689 18° North 359 413 14,000 -1,200 Descending Jacksonville Center
Wed 05:16:52 PM 29.7053 -82.2397 21° North 357 411 13,200 -1,075 Descending Jacksonville Center
Wed 05:17:19 PM 29.7469 -82.2275 14° North 350 403 12,800 -900 Descending Jacksonville Center
Wed 05:17:52 PM 29.7969 -82.2081 19° North 357 411 12,300 -1,082 Descending Jacksonville Center
Wed 05:18:20 PM 29.8367 -82.1886 23° Northeast 345 397 11,700 -1,400 Descending Jacksonville Center
Wed 05:18:52 PM 29.8867 -82.1714 17° North 345 397 10,900 -1,574 Descending Jacksonville Center
Wed 05:19:21 PM 29.9242 -82.1569 18° North 307 353 10,100 -1,500 Descending Jacksonville Center
Wed 05:19:52 PM 29.9700 -82.1397 18° North 327 376 9,400 -1,522 Descending Jacksonville Center
Wed 05:20:28 PM 30.0200 -82.1250 14° North 303 349 8,400 -1,600 Descending Jacksonville Center
Wed 05:20:52 PM 30.0469 -82.1128 21° North 303 349 7,800 -1,527 Descending Jacksonville Center
Wed 05:21:23 PM 30.0867 -82.0956 21° North 278 320 7,000 -1,517 Descending Jacksonville Center
Wed 05:22:19 PM 30.1553 -82.0733 16° North 275 316 5,600 -974 Descending Jacksonville Center
Wed 05:23:20 PM 30.2242 -82.0489 17° North 265 305 5,100 -328 Descending Jacksonville Center
Wed 05:24:27 PM 30.2989 -81.9975 31° Northeast 269 310 4,900 -627 Descending Jacksonville Center
Wed 05:25:34 PM 30.3611 -81.9369 40° Northeast 269 310 3,700 -1,077 Descending Jacksonville Center
Wed 05:26:24 PM 30.4131 -81.8931 36° Northeast 267 307 2,800 -919 Descending Jacksonville Center
Wed 05:27:25 PM 30.4689 -81.8417 38° Northeast 255 293 2,000 -787 Descending Jacksonville Center

Login

Don't have an account? Register now (free) for customized features, flight alerts, and more!